Westford, VT

11:32 EDT le 17 septembre 2014 (GMT -0400)
Morrisville Stowe State | Change Station
CLOSE
Current Station
Aéroport
Location: Morrisville,
Altitude: 732 ft
Stations météo à proximité

Alt. 732 ft 44.53 °N, 72.61 °W | Updated 38 minutes ago

Ciel dégagé
Ciel dégagé
58 ° F
Paraît 58 ° F
N
0
Vent Variable Vent de Nord

Aujourd'hui
Haut(e) -- | Bas -- ° F
--% Risque de précip.
Hier
Haut(e) -- | Bas -- ° F
Precip. -- pouce
6:33 AM 6:58 PM
Lune descendante, 35% visible
Pression 30.03 pouce
Visibilité 10.0 Miles terrestres
Nuages Ciel dégagé
Point de rosée 46 ° F
Humidité 65%
Précipitations 0.00 pouce
Profondeur de la couche neigeuse Non disponible.
UV 6 sur 12
Pollen 2.10 sur 12
PM2.5 Bon
Flu Activity Non disponible.
METAR KMVL 171454Z AUTO 00000KT 10SM CLR 14/08 A3002 RMK AO2 SLP167 T01440078 58004

More Conditions Fewer Conditions

Pression 30.03 pouce
Visibilité 10.0 Miles terrestres
Nuages Ciel dégagé
Point de rosée 46 ° F
Humidité 65%
Précipitations 0.00 pouce
Profondeur de la couche neigeuse Non disponible.
UV 6 sur 12
Pollen 2.10 sur 12
PM2.5 Bon
Flu Activity Non disponible.
METAR KMVL 171454Z AUTO 00000KT 10SM CLR 14/08 A3002 RMK AO2 SLP167 T01440078 58004

More Conditions Fewer Conditions

10-Day Weather Forecast

Almanac

Astronomie

Sep. 17, 2014 Lever Coucher
Temps réel 06:33 EDT 18:58 EDT
Crépuscule civil 06:03 EDT 19:28 EDT
Crépuscule nautique 05:29 EDT 20:02 EDT
Crépuscule astronomique 04:53 EDT 20:38 EDT
Lune 00:20 EDT 15:16 EDT
Durée de lumière visible 13h 24m
Longueur du jour
12h 25m
Tomorrow will be 3m 3s shorter.
Lune descendante, 35% of the Moon is Illuminated
Aujourd'hui
Lune descendante
Sep 24
Nouveau
Oct 1
Premier quartier
Oct 8
Pleine lune
Oct 15
Dernier quartier

Extrêmes aujourd'hui

State Highs State Lows

Community

WunderPhotos

Upload Photos

1,754,068 Photos téléchargées !

WunderBlogs® & News

Nearby

Qualité de l'air

  Qualité de l'air Indice de la qualité de l'air Polluant
Hier Bon
OZONE
Hier Bon
PM2.5
Actuel Bon
PM2.5
mercredi Bon
PM2.5
mercredi Bon
OZONE
jeudi Bon
PM2.5
jeudi Bon
OZONE
vendredi Bon
PM2.5
vendredi Bon
OZONE

Épaisseur de neige

Station Depth Altitude
Pas de nouvelles chutes de neige

Activité sismique

Ville Distance Mag. Time & Date
No recent earthquake activity has been reported nearby.
Minimum magnitude displayed is 2.5.

Températures des eaux côtières

Lieu Température
Aucun rapport de station

Stations météo à proximité